Time;durP1;ratioP1;P1;durP2;ratioP2;P2;SDS_P1;SDS_P2;PMS_P1;PMS_P2;Temp;Humidity;BMP_temperature;BMP_pressure;BME280_temperature;BME280_humidity;BME280_pressure;Samples;Min_cycle;Max_cycle;Signal;HPM_P1;HPM_P2
2023/05/14 00:04:46;;;;;;;1.92;1.50;;;;;;;12.31;100.00;98610.16;15273881;19;20474;-44
2023/05/14 00:10:12;;;;;;;1.60;1.50;;;;;;;12.24;100.00;98597.47;15272950;19;20404;-44
2023/05/14 00:15:37;;;;;;;2.53;1.52;;;;;;;12.14;100.00;98592.25;15273203;19;20389;-44
2023/05/14 00:21:04;;;;;;;1.77;1.50;;;;;;;12.06;100.00;98595.78;15265465;19;20007;-44
2023/05/14 00:26:28;;;;;;;1.98;1.70;;;;;;;11.97;100.00;98585.94;15274273;19;20019;-45
2023/05/14 00:31:53;;;;;;;1.83;1.60;;;;;;;11.95;100.00;98587.97;15266426;19;20098;-44
2023/05/14 00:37:21;;;;;;;1.90;1.50;;;;;;;11.85;100.00;98586.28;15272467;19;20015;-45
2023/05/14 00:42:47;;;;;;;2.08;1.60;;;;;;;11.82;100.00;98580.34;15275390;19;20050;-45
2023/05/14 00:48:12;;;;;;;1.52;1.42;;;;;;;11.78;100.00;98581.69;15277060;19;20393;-45
2023/05/14 00:53:39;;;;;;;2.10;1.40;;;;;;;11.78;100.00;98581.69;15289094;19;20025;-44
2023/05/14 00:59:03;;;;;;;2.20;1.50;;;;;;;11.76;100.00;98581.00;15286794;19;20023;-45
2023/05/14 01:04:29;;;;;;;1.67;1.48;;;;;;;11.70;100.00;98583.34;15287819;19;20027;-47
2023/05/14 01:10:03;;;;;;;2.80;1.45;;;;;;;11.62;100.00;98588.72;15288274;19;20039;-44
2023/05/14 01:15:32;;;;;;;1.73;1.58;;;;;;;11.49;100.00;98589.19;15286059;19;20017;-44
2023/05/14 01:20:57;;;;;;;2.25;1.58;;;;;;;11.36;100.00;98588.81;15280861;19;20023;-44
2023/05/14 01:26:24;;;;;;;1.73;1.63;;;;;;;11.24;100.00;98589.09;15277346;19;20011;-44
2023/05/14 01:31:50;;;;;;;2.55;1.88;;;;;;;11.21;100.00;98593.97;15277082;19;20014;-43
2023/05/14 01:37:16;;;;;;;1.98;1.80;;;;;;;11.17;100.00;98584.50;15278907;19;20015;-44
2023/05/14 01:42:44;;;;;;;2.55;1.85;;;;;;;11.14;100.00;98582.97;15278915;19;20011;-44
2023/05/14 01:48:09;;;;;;;2.10;1.75;;;;;;;11.10;100.00;98579.78;15280375;19;20020;-45
2023/05/14 01:53:35;;;;;;;2.40;1.95;;;;;;;11.08;100.00;98586.31;15285218;19;20025;-43
2023/05/14 01:59:02;;;;;;;4.18;1.90;;;;;;;11.07;100.00;98590.00;15269943;19;20021;-42
2023/05/14 02:04:26;;;;;;;4.22;2.00;;;;;;;11.02;100.00;98587.78;15283371;19;20015;-44
2023/05/14 02:09:51;;;;;;;1.98;1.85;;;;;;;10.94;100.00;98580.50;15279954;19;20017;-44
2023/05/14 02:15:18;;;;;;;2.30;2.10;;;;;;;10.84;100.00;98582.47;15282566;19;20056;-46
2023/05/14 02:20:43;;;;;;;4.00;2.17;;;;;;;10.84;100.00;98582.47;15277204;19;20349;-43
2023/05/14 02:26:09;;;;;;;2.47;2.25;;;;;;;10.87;100.00;98574.06;15282923;19;20011;-43
2023/05/14 02:31:36;;;;;;;2.70;2.13;;;;;;;10.89;100.00;98576.59;15271520;19;20015;-43
2023/05/14 02:37:00;;;;;;;2.28;2.00;;;;;;;10.89;100.00;98569.38;15278716;19;20373;-43
2023/05/14 02:42:25;;;;;;;2.72;2.20;;;;;;;10.85;100.00;98556.38;15274752;19;20482;-42
2023/05/14 02:47:53;;;;;;;2.40;2.20;;;;;;;10.81;100.00;98568.47;15280060;19;20729;-43
2023/05/14 02:53:18;;;;;;;2.63;2.10;;;;;;;10.75;100.00;98559.16;15281134;19;20285;-42
2023/05/14 02:58:43;;;;;;;2.40;2.20;;;;;;;10.71;100.00;98557.78;15273843;19;20741;-42
2023/05/14 03:04:10;;;;;;;4.22;2.20;;;;;;;10.63;100.00;98562.13;15273352;19;20472;-43
2023/05/14 03:09:35;;;;;;;2.33;2.00;;;;;;;10.53;100.00;98555.16;15278540;19;20023;-43
2023/05/14 03:14:59;;;;;;;2.92;2.13;;;;;;;10.42;100.00;98548.19;15280497;19;20010;-43
2023/05/14 03:20:26;;;;;;;2.85;2.10;;;;;;;10.33;100.00;98552.63;15276756;19;20024;-43
2023/05/14 03:25:51;;;;;;;2.83;2.50;;;;;;;10.23;100.00;98562.63;15285452;19;20010;-43
2023/05/14 03:31:16;;;;;;;4.88;2.60;;;;;;;10.15;100.00;98561.59;15280243;19;20019;-43
2023/05/14 03:36:43;;;;;;;3.30;2.65;;;;;;;10.12;100.00;98555.63;15266673;19;20017;-76
2023/05/14 03:42:08;;;;;;;2.72;2.53;;;;;;;10.13;100.00;98552.81;15277735;19;20050;-77
2023/05/14 03:47:33;;;;;;;2.92;2.63;;;;;;;10.14;100.00;98554.50;15276898;19;20089;-76
2023/05/14 03:53:00;;;;;;;2.80;2.60;;;;;;;10.11;100.00;98556.66;15276907;19;20011;-76
2023/05/14 03:58:25;;;;;;;2.80;2.60;;;;;;;10.08;100.00;98549.72;15279368;19;20416;-76
2023/05/14 04:03:50;;;;;;;4.90;2.65;;;;;;;10.08;100.00;98549.72;15281579;19;20351;-76
2023/05/14 04:09:17;;;;;;;2.70;2.50;;;;;;;10.08;100.00;98552.41;15274052;19;20094;-76
2023/05/14 04:14:44;;;;;;;3.85;2.60;;;;;;;10.08;100.00;98540.81;15287135;19;20022;-76
2023/05/14 04:20:09;;;;;;;3.45;2.58;;;;;;;10.03;100.00;98542.13;15348414;19;20017;-77
2023/05/14 04:25:36;;;;;;;2.95;2.60;;;;;;;9.99;100.00;98546.13;15284994;19;20014;-74
2023/05/14 04:31:01;;;;;;;3.25;2.72;;;;;;;9.96;100.00;98548.28;15288582;19;20022;-76
2023/05/14 04:36:32;;;;;;;4.60;2.60;;;;;;;10.00;100.00;98550.50;15288015;19;20014;-76
2023/05/14 04:41:59;;;;;;;3.67;2.50;;;;;;;10.11;100.00;98544.03;15281098;19;20556;-75
2023/05/14 04:47:25;;;;;;;2.88;2.58;;;;;;;10.23;100.00;98547.31;15286154;19;20097;-75
2023/05/14 04:52:50;;;;;;;3.97;2.47;;;;;;;10.36;100.00;98549.63;15285253;19;20479;-77
2023/05/14 04:58:17;;;;;;;4.05;2.60;;;;;;;10.46;100.00;98546.88;15282589;19;20471;-77
2023/05/14 05:03:42;;;;;;;3.33;2.70;;;;;;;10.55;100.00;98550.44;15289810;19;20486;-76
2023/05/14 05:09:07;;;;;;;3.95;2.60;;;;;;;10.60;100.00;98550.84;15287229;19;20484;-77
2023/05/14 05:14:42;;;;;;;3.95;2.20;;;;;;;10.66;100.00;98552.03;15290224;19;20011;-75
2023/05/14 05:20:10;;;;;;;2.80;2.55;;;;;;;10.71;100.00;98555.97;15286645;19;20011;-78
2023/05/14 05:25:36;;;;;;;2.97;2.75;;;;;;;10.82;100.00;98545.91;15297524;19;20049;-80
2023/05/14 05:31:03;;;;;;;2.90;2.40;;;;;;;11.00;100.00;98552.06;15287483;19;20578;-77
2023/05/14 05:36:28;;;;;;;3.92;2.22;;;;;;;11.18;100.00;98543.06;15289799;19;20027;-77
2023/05/14 05:41:53;;;;;;;3.50;2.22;;;;;;;11.39;100.00;98537.25;15279963;19;20010;-76
2023/05/14 05:47:20;;;;;;;4.40;2.00;;;;;;;11.60;100.00;98536.78;15274203;19;20011;-77
2023/05/14 05:52:45;;;;;;;2.30;2.10;;;;;;;11.80;100.00;98534.63;15274663;19;20006;-77
2023/05/14 05:58:09;;;;;;;3.88;2.70;;;;;;;11.99;100.00;98538.91;15279158;19;20068;-77
2023/05/14 06:03:37;;;;;;;2.38;2.17;;;;;;;12.19;100.00;98535.84;15281481;19;20018;-76
2023/05/14 06:09:12;;;;;;;4.10;2.35;;;;;;;12.36;100.00;98530.47;15281111;19;20016;-78
2023/05/14 06:14:37;;;;;;;4.68;2.20;;;;;;;12.60;100.00;98518.75;15280308;19;20014;-77
2023/05/14 06:20:04;;;;;;;3.53;2.03;;;;;;;12.93;100.00;98524.09;15276961;19;20014;-77
2023/05/14 06:25:29;;;;;;;2.13;1.90;;;;;;;13.25;100.00;98514.16;15277524;19;20056;-77
2023/05/14 06:30:53;;;;;;;1.85;1.75;;;;;;;13.52;100.00;98512.88;15280033;19;20027;-79
2023/05/14 06:36:27;;;;;;;2.17;1.80;;;;;;;13.68;100.00;98502.97;15283814;19;20021;-77
2023/05/14 06:41:52;;;;;;;3.35;2.10;;;;;;;13.79;100.00;98494.44;15283310;19;20092;-78
2023/05/14 06:47:16;;;;;;;3.03;1.95;;;;;;;13.92;100.00;98487.56;15282047;19;20021;-78
2023/05/14 06:52:44;;;;;;;2.00;1.80;;;;;;;14.02;100.00;98488.16;15302226;19;20013;-78
2023/05/14 06:58:08;;;;;;;2.38;1.67;;;;;;;14.16;100.00;98489.22;15299821;19;20082;-77
2023/05/14 07:03:33;;;;;;;1.98;1.60;;;;;;;14.29;100.00;98478.59;15290150;19;20022;-78
2023/05/14 07:09:00;;;;;;;1.45;1.15;;;;;;;14.43;100.00;98476.94;15285536;19;20021;-78
2023/05/14 07:14:25;;;;;;;1.20;1.10;;;;;;;14.59;100.00;98475.09;15282484;19;20093;-79
2023/05/14 07:19:49;;;;;;;1.38;1.10;;;;;;;14.73;100.00;98466.16;15268829;19;20017;-77
2023/05/14 07:25:17;;;;;;;1.88;1.10;;;;;;;14.86;100.00;98459.22;14767582;19;10001599;-77
2023/05/14 07:30:42;;;;;;;2.75;0.90;;;;;;;15.00;100.00;98447.50;15269749;19;20266;-78
2023/05/14 07:36:14;;;;;;;1.73;1.00;;;;;;;15.11;100.00;98446.19;15275575;19;20353;-78
2023/05/14 07:41:43;;;;;;;2.25;1.17;;;;;;;15.24;100.00;98450.91;15278814;19;20010;-77
2023/05/14 07:47:07;;;;;;;1.83;1.00;;;;;;;15.37;100.00;98447.53;15280154;19;20482;-78
2023/05/14 07:52:33;;;;;;;1.10;1.00;;;;;;;15.47;100.00;98430.91;15279482;19;20014;-77
2023/05/14 07:58:01;;;;;;;1.83;1.10;;;;;;;15.59;100.00;98433.97;15316711;19;20006;-78
2023/05/14 08:03:26;;;;;;;1.95;1.10;;;;;;;15.70;100.00;98430.75;15323909;19;20006;-78
2023/05/14 08:08:50;;;;;;;1.02;0.90;;;;;;;15.85;100.00;98431.56;15271161;19;20037;-78
2023/05/14 08:14:17;;;;;;;1.30;1.00;;;;;;;15.98;100.00;98428.09;15278749;19;20025;-78
2023/05/14 08:19:42;;;;;;;1.75;1.10;;;;;;;16.14;100.00;98418.81;15273133;19;20878;-78
2023/05/14 08:25:15;;;;;;;1.42;1.08;;;;;;;16.27;100.00;98420.81;15267958;19;20809;-77
2023/05/14 08:31:05;;;;;;;1.42;1.00;;;;;;;16.43;100.00;98416.09;15279208;19;20007;-78
2023/05/14 08:36:36;;;;;;;1.42;1.10;;;;;;;16.59;100.00;98410.34;15281292;19;20021;-77
2023/05/14 08:42:03;;;;;;;1.20;1.10;;;;;;;16.86;100.00;98402.31;15277501;19;20342;-78
2023/05/14 08:47:32;;;;;;;0.95;0.90;;;;;;;17.00;100.00;98405.09;15273937;19;20022;-76
2023/05/14 08:52:57;;;;;;;1.10;1.00;;;;;;;17.13;100.00;98407.88;15273093;19;20577;-76
2023/05/14 08:58:22;;;;;;;1.20;1.08;;;;;;;17.28;100.00;98401.44;15263001;19;20550;-76
2023/05/14 09:03:50;;;;;;;1.30;1.10;;;;;;;17.36;100.00;98401.25;15267517;19;20028;-76
2023/05/14 09:09:16;;;;;;;2.80;1.10;;;;;;;17.56;100.00;98399.41;15265145;19;20025;-76
2023/05/14 09:14:41;;;;;;;1.10;1.00;;;;;;;17.92;100.00;98394.59;15283085;19;20031;-76
2023/05/14 09:20:13;;;;;;;1.90;0.90;;;;;;;18.16;100.00;98382.28;15279506;19;20049;-76
2023/05/14 09:25:38;;;;;;;1.00;0.90;;;;;;;18.37;100.00;98388.53;15281857;19;20617;-77
2023/05/14 09:31:03;;;;;;;0.90;0.90;;;;;;;18.53;100.00;98381.78;15275204;19;20017;-77
2023/05/14 09:36:37;;;;;;;1.10;0.88;;;;;;;18.75;100.00;98387.81;15276548;19;20015;-78
2023/05/14 09:42:02;;;;;;;1.05;1.00;;;;;;;18.92;100.00;98384.56;15284255;19;20035;-77
2023/05/14 09:47:27;;;;;;;1.10;1.00;;;;;;;18.87;100.00;98378.94;15321943;19;20021;-77
2023/05/14 09:52:56;;;;;;;1.23;1.13;;;;;;;18.71;100.00;98369.31;15342482;19;20021;-77
2023/05/14 09:58:22;;;;;;;1.00;0.90;;;;;;;18.65;100.00;98357.38;15335682;19;20033;-78
2023/05/14 10:03:47;;;;;;;0.80;0.80;;;;;;;18.57;100.00;98352.16;15291943;19;20030;-78
2023/05/14 10:09:21;;;;;;;0.80;0.80;;;;;;;18.62;100.00;98345.00;15283486;19;20104;-78
2023/05/14 10:14:52;;;;;;;1.20;1.00;;;;;;;18.76;100.00;98343.06;15313097;19;20014;-78
2023/05/14 10:20:10;;;;;;;2.20;0.93;;;;;;;18.81;100.00;98334.25;15311980;19;20018;-78
2023/05/14 10:25:39;;;;;;;0.80;0.80;;;;;;;18.83;100.00;98328.56;15282190;19;20010;-79
2023/05/14 10:31:04;;;;;;;0.95;0.88;;;;;;;18.83;100.00;98332.09;15286152;19;20127;-78
2023/05/14 10:36:30;;;;;;;1.23;0.90;;;;;;;18.79;100.00;98339.91;15281685;19;20015;-79
2023/05/14 10:41:57;;;;;;;1.50;0.80;;;;;;;18.76;100.00;98326.69;15291585;19;20017;-78
2023/05/14 10:47:26;;;;;;;1.02;1.00;;;;;;;18.73;100.00;98318.09;15293941;19;20006;-79
2023/05/14 10:52:51;;;;;;;1.10;1.00;;;;;;;18.50;100.00;98319.44;15288795;19;20022;-76
2023/05/14 10:58:20;;;;;;;1.23;1.13;;;;;;;18.21;100.00;98315.34;15286151;19;20028;-77
2023/05/14 11:03:50;;;;;;;1.10;1.10;;;;;;;17.90;100.00;98304.03;15290151;19;20002;-78
2023/05/14 11:09:18;;;;;;;1.30;1.20;;;;;;;17.76;100.00;98307.84;15279023;19;20481;-77
2023/05/14 11:14:50;;;;;;;1.98;1.10;;;;;;;17.70;100.00;98304.03;15288454;19;20023;-78
2023/05/14 11:20:16;;;;;;;1.48;1.20;;;;;;;17.58;100.00;98295.69;15286045;19;20023;-77
2023/05/14 11:25:40;;;;;;;2.95;1.00;;;;;;;17.50;100.00;98288.56;15285543;19;20021;-77
2023/05/14 11:31:08;;;;;;;3.80;1.20;;;;;;;17.44;100.00;98292.13;15283227;19;20379;-77
2023/05/14 11:36:32;;;;;;;1.20;1.10;;;;;;;17.39;100.00;98286.47;15281346;19;20014;-77
2023/05/14 11:41:57;;;;;;;1.30;1.20;;;;;;;17.46;100.00;98286.47;15278561;19;20010;-77
2023/05/14 11:47:25;;;;;;;1.52;1.40;;;;;;;17.62;100.00;98269.72;15287732;19;20014;-77
2023/05/14 11:52:58;;;;;;;3.00;1.20;;;;;;;17.98;100.00;98262.13;15289218;19;20025;-77
2023/05/14 11:58:23;;;;;;;1.10;1.00;;;;;;;18.42;100.00;98257.78;15327068;19;20024;-77
2023/05/14 12:03:52;;;;;;;1.10;1.00;;;;;;;18.81;100.00;98254.25;15297821;19;20324;-81
2023/05/14 12:09:20;;;;;;;1.40;1.00;;;;;;;18.87;100.00;98254.19;15270009;19;20021;-77
2023/05/14 12:14:48;;;;;;;1.25;1.10;;;;;;;18.89;100.00;98237.59;15281363;19;20014;-78
2023/05/14 12:20:17;;;;;;;1.08;0.98;;;;;;;19.06;100.00;98237.94;15274074;19;20019;-76
2023/05/14 12:25:52;;;;;;;0.90;0.90;;;;;;;19.24;91.44;98231.72;15277040;19;20022;-76
2023/05/14 12:31:17;;;;;;;1.50;1.00;;;;;;;19.44;100.00;98225.25;15279484;19;20488;-77
2023/05/14 12:36:51;;;;;;;1.35;0.90;;;;;;;19.68;87.33;98232.59;15282849;19;20028;-76
2023/05/14 12:42:17;;;;;;;1.27;0.82;;;;;;;19.79;81.06;98227.44;15270811;19;20009;-77
2023/05/14 12:47:41;;;;;;;0.93;0.80;;;;;;;20.02;89.18;98221.34;15290690;19;20014;-77
2023/05/14 12:53:09;;;;;;;0.85;0.77;;;;;;;19.96;83.79;98222.25;15291980;19;20360;-77
2023/05/14 12:58:34;;;;;;;1.25;1.00;;;;;;;19.85;84.96;98213.72;15294558;19;20019;-78
2023/05/14 13:03:59;;;;;;;1.90;1.00;;;;;;;19.75;85.93;98204.34;15295868;19;20025;-78
2023/05/14 13:09:28;;;;;;;0.82;0.80;;;;;;;19.74;80.19;98191.75;15293470;19;20089;-77
2023/05/14 13:14:53;;;;;;;1.25;0.98;;;;;;;19.53;79.05;98196.59;15294014;19;20017;-78
2023/05/14 13:20:18;;;;;;;2.80;1.00;;;;;;;19.38;87.96;98183.28;15295683;19;20028;-78
2023/05/14 13:25:47;;;;;;;0.80;0.80;;;;;;;19.17;84.26;98187.25;15296801;19;20018;-78
2023/05/14 13:31:14;;;;;;;1.33;0.93;;;;;;;19.05;93.56;98176.22;15292049;19;20016;-78
2023/05/14 13:36:48;;;;;;;1.75;1.08;;;;;;;18.97;97.84;98171.88;15292977;19;20026;-80
2023/05/14 13:42:18;;;;;;;2.05;1.10;;;;;;;18.89;99.04;98166.63;15293093;19;20363;-78
2023/05/14 13:47:45;;;;;;;1.88;1.25;;;;;;;18.92;100.00;98163.47;15289934;19;20094;-79
2023/05/14 13:53:11;;;;;;;1.50;1.20;;;;;;;18.94;100.00;98164.13;15293947;19;20422;-77
2023/05/14 13:58:38;;;;;;;1.55;1.20;;;;;;;18.51;100.00;98156.63;15292890;19;20018;-80
2023/05/14 14:04:03;;;;;;;4.40;1.02;;;;;;;18.43;100.00;98155.81;15296944;19;20018;-79
2023/05/14 14:09:33;;;;;;;1.00;0.90;;;;;;;18.59;100.00;98156.34;15293124;19;20246;-78
2023/05/14 14:15:01;;;;;;;1.08;0.70;;;;;;;18.62;91.68;98147.75;15295725;19;20010;-78
2023/05/14 14:20:25;;;;;;;0.95;0.85;;;;;;;18.80;99.78;98144.25;15288279;19;20013;-80
2023/05/14 14:25:50;;;;;;;1.02;0.93;;;;;;;18.89;91.03;98142.91;15303380;19;20022;-79
2023/05/14 14:31:18;;;;;;;1.70;1.00;;;;;;;18.99;100.00;98133.41;15300251;19;20361;-78
2023/05/14 14:36:43;;;;;;;2.78;1.13;;;;;;;19.01;100.00;98126.66;15295751;19;20025;-78
2023/05/14 14:42:07;;;;;;;1.45;1.10;;;;;;;18.97;100.00;98135.53;15296216;19;20082;-79
2023/05/14 14:47:35;;;;;;;1.20;1.10;;;;;;;19.03;100.00;98134.66;15297226;19;20027;-78
2023/05/14 14:52:59;;;;;;;1.00;1.00;;;;;;;19.01;100.00;98134.03;15307067;19;20294;-79
2023/05/14 14:58:25;;;;;;;1.83;0.85;;;;;;;19.01;100.00;98132.13;15290148;19;20015;-78
2023/05/14 15:03:52;;;;;;;1.25;0.80;;;;;;;19.08;100.00;98123.88;15288859;19;20081;-77
2023/05/14 15:09:17;;;;;;;1.00;0.90;;;;;;;19.18;97.64;98120.66;15264396;19;20724;-77
2023/05/14 15:14:41;;;;;;;1.08;0.95;;;;;;;19.42;99.48;98118.09;15324284;19;20018;-78
2023/05/14 15:20:10;;;;;;;1.25;1.10;;;;;;;19.32;96.18;98114.00;15331416;19;20015;-80
2023/05/14 15:25:35;;;;;;;2.38;1.02;;;;;;;19.25;100.00;98114.06;15295754;19;20094;-77
2023/05/14 15:31:01;;;;;;;1.40;0.98;;;;;;;19.18;100.00;98118.75;15298955;19;20118;-79
2023/05/14 15:36:28;;;;;;;0.82;0.82;;;;;;;19.05;100.00;98119.72;15296413;19;20014;-81
2023/05/14 15:41:57;;;;;;;2.53;0.88;;;;;;;18.93;97.40;98105.09;15293201;19;20006;-80
2023/05/14 15:47:21;;;;;;;0.80;0.80;;;;;;;18.89;96.84;98099.25;15294350;19;20014;-81
2023/05/14 15:52:50;;;;;;;2.08;0.80;;;;;;;18.85;94.89;98099.91;15296652;19;20010;-79
2023/05/14 15:58:21;;;;;;;1.73;0.65;;;;;;;18.75;94.87;98097.69;15337762;19;20010;-77
2023/05/14 16:03:47;;;;;;;0.60;0.60;;;;;;;18.70;96.08;98097.53;15305093;19;20030;-78
2023/05/14 16:09:15;;;;;;;1.48;0.80;;;;;;;18.64;92.25;98091.03;15277154;19;20478;-78
2023/05/14 16:14:40;;;;;;;1.30;0.60;;;;;;;18.61;92.21;98086.88;15284978;19;20041;-78
2023/05/14 16:20:06;;;;;;;0.88;0.70;;;;;;;18.68;95.21;98099.63;15285821;19;20010;-77
2023/05/14 16:25:34;;;;;;;1.25;1.00;;;;;;;18.63;100.00;98100.31;15294791;19;20014;-78
2023/05/14 16:30:58;;;;;;;2.05;0.90;;;;;;;18.64;100.00;98099.22;15289063;19;20367;-79
2023/05/14 16:36:23;;;;;;;1.30;0.88;;;;;;;18.96;100.00;98087.44;15299195;19;20037;-79
2023/05/14 16:41:50;;;;;;;2.17;1.10;;;;;;;18.76;100.00;98093.91;15297295;19;20489;-78
2023/05/14 16:47:15;;;;;;;1.48;1.00;;;;;;;18.36;100.00;98092.28;15301314;19;20014;-78
2023/05/14 16:52:40;;;;;;;1.00;1.00;;;;;;;18.15;100.00;98093.47;15292101;19;20098;-78
2023/05/14 16:58:08;;;;;;;4.63;1.15;;;;;;;18.05;100.00;98098.56;15329501;19;20022;-78
2023/05/14 17:03:32;;;;;;;1.30;1.02;;;;;;;17.98;100.00;98099.44;15329524;19;20014;-76
2023/05/14 17:08:57;;;;;;;0.93;0.93;;;;;;;17.98;100.00;98098.59;15338739;19;20014;-78
2023/05/14 17:14:24;;;;;;;2.35;1.05;;;;;;;17.91;100.00;98104.03;15314085;19;20387;-80
2023/05/14 17:19:49;;;;;;;1.20;1.10;;;;;;;17.91;100.00;98097.78;15297001;19;20027;-77
2023/05/14 17:25:15;;;;;;;1.60;1.00;;;;;;;17.82;100.00;98100.72;15298159;19;20022;-79
2023/05/14 17:30:43;;;;;;;1.30;1.20;;;;;;;17.80;100.00;98102.00;15291931;19;20017;-79
2023/05/14 17:36:07;;;;;;;1.75;1.02;;;;;;;17.85;100.00;98100.28;15283339;19;20011;-80
2023/05/14 17:41:32;;;;;;;46.53;11.65;;;;;;;18.15;100.00;98099.78;15284266;19;20355;-80
2023/05/14 17:46:59;;;;;;;2.28;1.38;;;;;;;18.47;100.00;98099.78;15297373;19;20237;-78
2023/05/14 17:52:24;;;;;;;0.75;0.75;;;;;;;18.73;100.00;98103.38;15292347;19;20022;-77
2023/05/14 17:57:51;;;;;;;0.80;0.80;;;;;;;18.96;100.00;98106.56;15292239;19;20011;-77
2023/05/14 18:03:19;;;;;;;2.75;1.02;;;;;;;19.03;100.00;98104.63;15290675;19;20086;-77
2023/05/14 18:08:44;;;;;;;2.42;0.80;;;;;;;19.06;100.00;98099.53;15285569;19;20094;-77
2023/05/14 18:14:09;;;;;;;1.40;0.60;;;;;;;18.98;100.00;98113.47;15291890;19;20463;-78
2023/05/14 18:19:36;;;;;;;0.60;0.60;;;;;;;18.84;100.00;98109.16;15293251;19;20081;-77
2023/05/14 18:25:01;;;;;;;1.20;0.68;;;;;;;18.67;100.00;98106.97;15289157;19;20021;-78
2023/05/14 18:30:25;;;;;;;1.05;0.70;;;;;;;18.41;100.00;98097.09;15284682;19;20018;-78
2023/05/14 18:35:53;;;;;;;0.93;0.70;;;;;;;18.14;100.00;98100.81;15284729;19;20411;-77
2023/05/14 18:41:17;;;;;;;1.17;1.08;;;;;;;17.78;100.00;98104.94;15281443;19;20018;-76
2023/05/14 18:46:42;;;;;;;2.53;0.73;;;;;;;17.53;100.00;98096.63;15284420;19;20081;-76
2023/05/14 18:52:09;;;;;;;0.70;0.70;;;;;;;17.35;100.00;98105.47;15281957;19;20014;-77
2023/05/14 18:57:34;;;;;;;0.60;0.60;;;;;;;17.15;100.00;98100.91;15288732;19;20018;-79
2023/05/14 19:02:58;;;;;;;2.05;0.70;;;;;;;16.92;100.00;98101.34;15282699;19;20013;-76
2023/05/14 19:08:26;;;;;;;1.27;0.85;;;;;;;16.71;100.00;98100.50;15279415;19;20758;-76
2023/05/14 19:13:51;;;;;;;0.93;0.80;;;;;;;16.51;100.00;98095.06;15287769;19;20021;-76
2023/05/14 19:19:16;;;;;;;0.70;0.70;;;;;;;16.32;100.00;98094.81;15279592;19;20019;-77
2023/05/14 19:24:43;;;;;;;0.82;0.80;;;;;;;16.15;100.00;98086.22;15276535;19;20017;-76
2023/05/14 19:30:10;;;;;;;0.80;0.80;;;;;;;15.96;100.00;98095.16;15277976;19;21463;-75
2023/05/14 19:35:34;;;;;;;0.82;0.82;;;;;;;15.73;100.00;98096.31;15280360;19;20003;-77
2023/05/14 19:41:02;;;;;;;0.80;0.80;;;;;;;15.54;100.00;98087.03;15277033;19;20018;-77
2023/05/14 19:46:27;;;;;;;1.20;1.00;;;;;;;15.36;100.00;98082.13;15290197;19;20029;-76
2023/05/14 19:51:52;;;;;;;2.10;0.82;;;;;;;15.16;100.00;98076.56;15283448;19;20029;-76
2023/05/14 19:57:19;;;;;;;1.63;0.80;;;;;;;15.01;100.00;98082.94;15327877;19;20014;-76
2023/05/14 20:02:44;;;;;;;1.35;0.93;;;;;;;14.90;100.00;98073.50;15317112;19;20031;-76
2023/05/14 20:08:08;;;;;;;2.70;1.00;;;;;;;14.78;100.00;98075.06;15275310;19;20022;-75
2023/05/14 20:13:37;;;;;;;1.23;0.90;;;;;;;14.66;100.00;98076.63;15275575;19;20614;-76
2023/05/14 20:19:02;;;;;;;4.05;1.05;;;;;;;14.39;100.00;98077.22;15278860;19;20011;-77
2023/05/14 20:24:27;;;;;;;1.30;1.20;;;;;;;14.00;100.00;98067.66;15278035;19;20025;-77
2023/05/14 20:29:54;;;;;;;1.50;1.40;;;;;;;13.51;100.00;98067.31;15274995;19;20029;-77
2023/05/14 20:35:19;;;;;;;1.40;1.30;;;;;;;13.29;100.00;98066.38;15278823;19;20022;-77
2023/05/14 20:40:51;;;;;;;1.80;1.20;;;;;;;13.15;100.00;98067.25;15272123;19;20025;-77
2023/05/14 20:46:18;;;;;;;2.38;1.10;;;;;;;13.06;100.00;98066.47;15268082;19;20007;-76
2023/05/14 20:51:42;;;;;;;1.67;1.20;;;;;;;13.03;100.00;98061.44;15271428;19;20025;-77
2023/05/14 20:57:08;;;;;;;1.00;1.00;;;;;;;13.01;100.00;98060.78;15271741;19;20017;-77
2023/05/14 21:02:37;;;;;;;1.45;1.02;;;;;;;12.84;100.00;98055.56;15272055;19;20030;-77
2023/05/14 21:08:02;;;;;;;1.48;1.30;;;;;;;12.70;100.00;98050.97;15283693;19;20021;-77
2023/05/14 21:13:28;;;;;;;1.30;1.20;;;;;;;12.58;100.00;98059.53;15290238;19;20010;-77
2023/05/14 21:18:55;;;;;;;1.40;1.30;;;;;;;12.53;100.00;98051.13;15278460;19;20366;-77
2023/05/14 21:24:19;;;;;;;1.30;1.20;;;;;;;12.46;100.00;98045.63;15285545;19;20385;-77
2023/05/14 21:29:45;;;;;;;1.30;1.20;;;;;;;12.42;100.00;98040.75;15283519;19;20011;-76
2023/05/14 21:35:13;;;;;;;1.60;1.50;;;;;;;12.35;100.00;98045.22;15286717;19;20013;-77
2023/05/14 21:40:45;;;;;;;1.35;1.25;;;;;;;12.29;100.00;98060.28;15281659;19;20330;-76
2023/05/14 21:46:09;;;;;;;2.63;1.57;;;;;;;12.17;100.00;98062.59;15287041;19;20010;-76
2023/05/14 21:51:36;;;;;;;1.63;1.30;;;;;;;12.10;100.00;98057.06;15276145;19;20270;-76
2023/05/14 21:57:01;;;;;;;1.50;1.40;;;;;;;12.02;100.00;98052.56;15279557;19;20027;-76
2023/05/14 22:02:26;;;;;;;1.50;1.40;;;;;;;11.96;100.00;98042.44;15279423;19;20026;-76
2023/05/14 22:07:54;;;;;;;1.95;1.42;;;;;;;11.90;100.00;98045.88;15284043;19;20082;-76
2023/05/14 22:13:26;;;;;;;2.38;1.50;;;;;;;11.78;100.00;98041.88;15276408;19;20043;-42
2023/05/14 22:18:51;;;;;;;1.80;1.40;;;;;;;11.68;100.00;98037.56;15270635;19;20020;-42
2023/05/14 22:24:18;;;;;;;2.45;1.60;;;;;;;11.59;100.00;98038.59;15267850;19;20555;-41
2023/05/14 22:29:43;;;;;;;1.65;1.55;;;;;;;11.46;100.00;98043.75;15274358;19;20618;-42
2023/05/14 22:35:08;;;;;;;4.03;2.00;;;;;;;11.24;100.00;98035.41;15280081;19;20098;-42
2023/05/14 22:40:35;;;;;;;1.92;1.73;;;;;;;11.07;100.00;98030.09;15275546;19;20007;-41
2023/05/14 22:46:01;;;;;;;1.98;1.77;;;;;;;10.97;100.00;98032.16;15275577;19;20025;-41
2023/05/14 22:51:25;;;;;;;1.90;1.80;;;;;;;10.90;100.00;98032.00;15271139;19;20018;-40
2023/05/14 22:56:53;;;;;;;2.03;1.83;;;;;;;10.84;100.00;98029.16;15271933;19;20043;-41
2023/05/14 23:02:18;;;;;;;2.17;2.08;;;;;;;10.77;100.00;98029.00;15275487;19;20487;-41
2023/05/14 23:07:43;;;;;;;2.38;2.17;;;;;;;10.68;100.00;98032.75;15273413;19;20483;-41
2023/05/14 23:13:11;;;;;;;2.63;2.20;;;;;;;10.63;100.00;98027.88;15276812;19;20479;-40
2023/05/14 23:18:36;;;;;;;2.50;2.30;;;;;;;10.56;100.00;98021.47;15273504;19;20021;-40
2023/05/14 23:24:07;;;;;;;2.60;1.80;;;;;;;10.56;100.00;98016.09;15276098;19;20029;-41
2023/05/14 23:29:35;;;;;;;1.90;1.80;;;;;;;10.52;100.00;98009.38;15264372;19;20771;-40
2023/05/14 23:35:00;;;;;;;1.83;1.73;;;;;;;10.41;100.00;98005.19;15270086;19;20632;-40
2023/05/14 23:40:25;;;;;;;2.10;1.90;;;;;;;10.31;100.00;98002.63;15270927;19;20375;-41
2023/05/14 23:45:59;;;;;;;2.65;2.00;;;;;;;10.23;100.00;97987.31;15269383;19;20018;-40
2023/05/14 23:51:24;;;;;;;2.67;2.00;;;;;;;10.11;100.00;97997.59;15269585;19;20014;-41
2023/05/14 23:56:49;;;;;;;2.60;2.10;;;;;;;10.02;100.00;97986.00;15270970;19;20014;-40
